sensor_id;sensor_type;location;lat;lon;timestamp;P1;durP1;ratioP1;P2;durP2;ratioP2
74791;SDS011;63319;46.046;17.802;2023-08-31T00:02:21;1.35;;;0.70;;
74791;SDS011;63319;46.046;17.802;2023-08-31T00:05:24;1.70;;;0.80;;
74791;SDS011;63319;46.046;17.802;2023-08-31T00:08:30;2.60;;;0.73;;
74791;SDS011;63319;46.046;17.802;2023-08-31T00:11:33;1.77;;;0.90;;
74791;SDS011;63319;46.046;17.802;2023-08-31T00:14:38;1.17;;;0.55;;
74791;SDS011;63319;46.046;17.802;2023-08-31T00:17:41;1.52;;;0.70;;
74791;SDS011;63319;46.046;17.802;2023-08-31T00:20:45;1.23;;;0.70;;
74791;SDS011;63319;46.046;17.802;2023-08-31T00:23:48;1.30;;;0.50;;
74791;SDS011;63319;46.046;17.802;2023-08-31T00:26:51;1.33;;;0.70;;
74791;SDS011;63319;46.046;17.802;2023-08-31T00:29:54;1.60;;;0.70;;
74791;SDS011;63319;46.046;17.802;2023-08-31T00:32:58;1.63;;;0.60;;
74791;SDS011;63319;46.046;17.802;2023-08-31T00:36:04;1.80;;;0.90;;
74791;SDS011;63319;46.046;17.802;2023-08-31T00:39:07;1.43;;;0.63;;
74791;SDS011;63319;46.046;17.802;2023-08-31T00:42:14;1.25;;;0.68;;
74791;SDS011;63319;46.046;17.802;2023-08-31T00:45:17;1.90;;;0.70;;
74791;SDS011;63319;46.046;17.802;2023-08-31T00:48:22;1.75;;;0.90;;
74791;SDS011;63319;46.046;17.802;2023-08-31T00:51:25;1.90;;;0.60;;
74791;SDS011;63319;46.046;17.802;2023-08-31T00:54:28;1.30;;;0.50;;
74791;SDS011;63319;46.046;17.802;2023-08-31T00:57:31;1.10;;;0.57;;
74791;SDS011;63319;46.046;17.802;2023-08-31T01:10:18;1.43;;;0.60;;
74791;SDS011;63319;46.046;17.802;2023-08-31T01:13:32;1.05;;;0.60;;
74791;SDS011;63319;46.046;17.802;2023-08-31T01:16:37;1.15;;;0.52;;
74791;SDS011;63319;46.046;17.802;2023-08-31T01:19:48;1.58;;;0.70;;
74791;SDS011;63319;46.046;17.802;2023-08-31T01:22:57;1.97;;;0.80;;
74791;SDS011;63319;46.046;17.802;2023-08-31T01:26:06;1.03;;;0.60;;
74791;SDS011;63319;46.046;17.802;2023-08-31T01:29:08;1.00;;;0.70;;
74791;SDS011;63319;46.046;17.802;2023-08-31T01:32:12;1.17;;;0.60;;
74791;SDS011;63319;46.046;17.802;2023-08-31T01:35:16;1.05;;;0.60;;
74791;SDS011;63319;46.046;17.802;2023-08-31T01:38:25;1.57;;;0.73;;
74791;SDS011;63319;46.046;17.802;2023-08-31T01:41:33;1.10;;;0.60;;
74791;SDS011;63319;46.046;17.802;2023-08-31T01:44:38;1.20;;;0.70;;
74791;SDS011;63319;46.046;17.802;2023-08-31T01:47:41;1.10;;;0.50;;
74791;SDS011;63319;46.046;17.802;2023-08-31T01:50:46;1.60;;;0.73;;
74791;SDS011;63319;46.046;17.802;2023-08-31T01:53:49;1.23;;;0.60;;
74791;SDS011;63319;46.046;17.802;2023-08-31T01:56:52;1.23;;;0.60;;
74791;SDS011;63319;46.046;17.802;2023-08-31T01:59:55;1.63;;;0.73;;
74791;SDS011;63319;46.046;17.802;2023-08-31T02:02:58;1.27;;;0.60;;
74791;SDS011;63319;46.046;17.802;2023-08-31T02:06:01;2.17;;;0.68;;
74791;SDS011;63319;46.046;17.802;2023-08-31T02:09:04;1.47;;;0.70;;
74791;SDS011;63319;46.046;17.802;2023-08-31T02:12:08;1.80;;;0.70;;
74791;SDS011;63319;46.046;17.802;2023-08-31T02:15:14;1.80;;;0.80;;
74791;SDS011;63319;46.046;17.802;2023-08-31T02:18:17;1.30;;;0.60;;
74791;SDS011;63319;46.046;17.802;2023-08-31T02:21:19;2.40;;;0.85;;
74791;SDS011;63319;46.046;17.802;2023-08-31T02:24:22;1.67;;;0.80;;
74791;SDS011;63319;46.046;17.802;2023-08-31T02:27:27;1.47;;;0.70;;
74791;SDS011;63319;46.046;17.802;2023-08-31T02:30:30;1.40;;;0.70;;
74791;SDS011;63319;46.046;17.802;2023-08-31T02:33:33;1.67;;;0.60;;
74791;SDS011;63319;46.046;17.802;2023-08-31T02:36:36;2.42;;;0.90;;
74791;SDS011;63319;46.046;17.802;2023-08-31T02:39:40;1.67;;;0.80;;
74791;SDS011;63319;46.046;17.802;2023-08-31T02:42:43;1.70;;;0.70;;
74791;SDS011;63319;46.046;17.802;2023-08-31T02:45:49;1.67;;;0.82;;
74791;SDS011;63319;46.046;17.802;2023-08-31T02:48:52;1.27;;;0.60;;
74791;SDS011;63319;46.046;17.802;2023-08-31T02:51:55;0.95;;;0.60;;
74791;SDS011;63319;46.046;17.802;2023-08-31T02:54:58;1.70;;;0.70;;
74791;SDS011;63319;46.046;17.802;2023-08-31T02:58:01;1.47;;;0.80;;
74791;SDS011;63319;46.046;17.802;2023-08-31T03:01:11;1.33;;;0.70;;
74791;SDS011;63319;46.046;17.802;2023-08-31T03:04:20;1.80;;;0.90;;
74791;SDS011;63319;46.046;17.802;2023-08-31T03:07:24;1.40;;;0.70;;
74791;SDS011;63319;46.046;17.802;2023-08-31T03:10:27;1.73;;;0.80;;
74791;SDS011;63319;46.046;17.802;2023-08-31T03:13:33;1.87;;;0.87;;
74791;SDS011;63319;46.046;17.802;2023-08-31T03:16:36;1.40;;;0.70;;
74791;SDS011;63319;46.046;17.802;2023-08-31T03:19:39;1.02;;;0.60;;
74791;SDS011;63319;46.046;17.802;2023-08-31T03:22:43;1.27;;;0.73;;
74791;SDS011;63319;46.046;17.802;2023-08-31T03:25:46;1.33;;;0.60;;
74791;SDS011;63319;46.046;17.802;2023-08-31T03:28:49;1.47;;;0.47;;
74791;SDS011;63319;46.046;17.802;2023-08-31T03:31:52;2.30;;;1.00;;
74791;SDS011;63319;46.046;17.802;2023-08-31T03:34:56;1.95;;;0.80;;
74791;SDS011;63319;46.046;17.802;2023-08-31T03:37:59;1.40;;;0.70;;
74791;SDS011;63319;46.046;17.802;2023-08-31T03:41:03;1.10;;;0.60;;
74791;SDS011;63319;46.046;17.802;2023-08-31T03:44:07;1.90;;;0.80;;
74791;SDS011;63319;46.046;17.802;2023-08-31T03:47:10;1.65;;;0.70;;
74791;SDS011;63319;46.046;17.802;2023-08-31T03:50:12;1.77;;;0.60;;
74791;SDS011;63319;46.046;17.802;2023-08-31T03:53:15;1.92;;;0.68;;
74791;SDS011;63319;46.046;17.802;2023-08-31T03:56:18;1.20;;;0.70;;
74791;SDS011;63319;46.046;17.802;2023-08-31T03:59:22;1.67;;;0.83;;
74791;SDS011;63319;46.046;17.802;2023-08-31T04:02:26;1.17;;;0.70;;
74791;SDS011;63319;46.046;17.802;2023-08-31T04:05:33;1.05;;;0.57;;
74791;SDS011;63319;46.046;17.802;2023-08-31T04:08:37;1.23;;;0.80;;
74791;SDS011;63319;46.046;17.802;2023-08-31T04:11:40;1.30;;;0.70;;
74791;SDS011;63319;46.046;17.802;2023-08-31T04:14:43;1.30;;;0.70;;
74791;SDS011;63319;46.046;17.802;2023-08-31T04:17:46;1.05;;;0.57;;
74791;SDS011;63319;46.046;17.802;2023-08-31T04:20:50;1.08;;;0.60;;
74791;SDS011;63319;46.046;17.802;2023-08-31T04:23:53;1.48;;;0.90;;
74791;SDS011;63319;46.046;17.802;2023-08-31T04:26:56;1.90;;;0.73;;
74791;SDS011;63319;46.046;17.802;2023-08-31T04:30:03;1.07;;;0.67;;
74791;SDS011;63319;46.046;17.802;2023-08-31T04:33:06;1.83;;;0.80;;
74791;SDS011;63319;46.046;17.802;2023-08-31T04:36:09;1.40;;;0.60;;
74791;SDS011;63319;46.046;17.802;2023-08-31T04:39:12;1.83;;;0.60;;
74791;SDS011;63319;46.046;17.802;2023-08-31T04:42:17;1.70;;;0.87;;
74791;SDS011;63319;46.046;17.802;2023-08-31T04:45:21;1.73;;;0.70;;
74791;SDS011;63319;46.046;17.802;2023-08-31T04:48:25;1.67;;;0.80;;
74791;SDS011;63319;46.046;17.802;2023-08-31T04:54:31;1.52;;;0.75;;
74791;SDS011;63319;46.046;17.802;2023-08-31T04:57:34;1.97;;;0.70;;
74791;SDS011;63319;46.046;17.802;2023-08-31T05:00:37;1.67;;;0.80;;
74791;SDS011;63319;46.046;17.802;2023-08-31T05:03:42;1.20;;;0.75;;
74791;SDS011;63319;46.046;17.802;2023-08-31T05:06:45;1.65;;;0.77;;
74791;SDS011;63319;46.046;17.802;2023-08-31T05:09:47;1.75;;;0.73;;
74791;SDS011;63319;46.046;17.802;2023-08-31T05:12:52;1.03;;;0.60;;
74791;SDS011;63319;46.046;17.802;2023-08-31T05:15:56;1.50;;;0.60;;
74791;SDS011;63319;46.046;17.802;2023-08-31T05:18:59;1.08;;;0.60;;
74791;SDS011;63319;46.046;17.802;2023-08-31T05:22:02;1.10;;;0.60;;
74791;SDS011;63319;46.046;17.802;2023-08-31T05:25:05;1.45;;;0.70;;
74791;SDS011;63319;46.046;17.802;2023-08-31T05:28:09;1.87;;;0.80;;
74791;SDS011;63319;46.046;17.802;2023-08-31T05:31:12;1.40;;;0.70;;
74791;SDS011;63319;46.046;17.802;2023-08-31T05:34:20;1.63;;;0.85;;
74791;SDS011;63319;46.046;17.802;2023-08-31T05:37:27;2.35;;;0.73;;
74791;SDS011;63319;46.046;17.802;2023-08-31T05:40:35;1.77;;;0.80;;
74791;SDS011;63319;46.046;17.802;2023-08-31T05:43:38;1.80;;;0.70;;
74791;SDS011;63319;46.046;17.802;2023-08-31T05:46:43;1.70;;;0.90;;
74791;SDS011;63319;46.046;17.802;2023-08-31T05:49:46;1.38;;;0.70;;
74791;SDS011;63319;46.046;17.802;2023-08-31T05:52:50;1.50;;;0.70;;
74791;SDS011;63319;46.046;17.802;2023-08-31T05:55:54;1.20;;;0.57;;
74791;SDS011;63319;46.046;17.802;2023-08-31T05:59:05;0.90;;;0.60;;
74791;SDS011;63319;46.046;17.802;2023-08-31T06:02:08;1.13;;;0.80;;
74791;SDS011;63319;46.046;17.802;2023-08-31T06:05:12;1.20;;;0.63;;
74791;SDS011;63319;46.046;17.802;2023-08-31T06:08:15;1.30;;;0.80;;
74791;SDS011;63319;46.046;17.802;2023-08-31T06:11:18;1.60;;;0.88;;
74791;SDS011;63319;46.046;17.802;2023-08-31T06:14:21;1.27;;;0.60;;
74791;SDS011;63319;46.046;17.802;2023-08-31T06:17:24;1.63;;;1.00;;
74791;SDS011;63319;46.046;17.802;2023-08-31T06:20:27;2.05;;;0.50;;
74791;SDS011;63319;46.046;17.802;2023-08-31T06:23:30;1.83;;;0.80;;
74791;SDS011;63319;46.046;17.802;2023-08-31T06:26:33;1.23;;;0.65;;
74791;SDS011;63319;46.046;17.802;2023-08-31T06:29:36;1.67;;;0.70;;
74791;SDS011;63319;46.046;17.802;2023-08-31T06:32:40;1.53;;;0.80;;
74791;SDS011;63319;46.046;17.802;2023-08-31T06:35:45;1.38;;;0.70;;
74791;SDS011;63319;46.046;17.802;2023-08-31T06:38:51;1.85;;;0.85;;
74791;SDS011;63319;46.046;17.802;2023-08-31T06:42:24;4.03;;;1.20;;
74791;SDS011;63319;46.046;17.802;2023-08-31T06:45:28;6.73;;;1.40;;
74791;SDS011;63319;46.046;17.802;2023-08-31T06:48:35;3.67;;;1.30;;
74791;SDS011;63319;46.046;17.802;2023-08-31T06:51:38;5.15;;;1.15;;
74791;SDS011;63319;46.046;17.802;2023-08-31T06:54:41;4.03;;;1.30;;
74791;SDS011;63319;46.046;17.802;2023-08-31T06:57:44;3.55;;;1.63;;
74791;SDS011;63319;46.046;17.802;2023-08-31T07:00:48;4.33;;;1.60;;
74791;SDS011;63319;46.046;17.802;2023-08-31T07:03:51;3.60;;;1.43;;
74791;SDS011;63319;46.046;17.802;2023-08-31T07:06:54;5.35;;;1.80;;
74791;SDS011;63319;46.046;17.802;2023-08-31T07:09:57;4.85;;;1.30;;
74791;SDS011;63319;46.046;17.802;2023-08-31T07:13:00;4.50;;;1.83;;
74791;SDS011;63319;46.046;17.802;2023-08-31T07:16:03;9.07;;;2.30;;
74791;SDS011;63319;46.046;17.802;2023-08-31T07:19:09;5.67;;;1.57;;
74791;SDS011;63319;46.046;17.802;2023-08-31T07:22:12;4.35;;;1.35;;
74791;SDS011;63319;46.046;17.802;2023-08-31T07:25:15;6.15;;;1.63;;
74791;SDS011;63319;46.046;17.802;2023-08-31T07:28:18;8.02;;;1.30;;
74791;SDS011;63319;46.046;17.802;2023-08-31T07:31:21;7.20;;;1.47;;
74791;SDS011;63319;46.046;17.802;2023-08-31T07:34:24;3.63;;;1.30;;
74791;SDS011;63319;46.046;17.802;2023-08-31T07:37:27;15.50;;;2.10;;
74791;SDS011;63319;46.046;17.802;2023-08-31T07:40:30;15.25;;;2.25;;
74791;SDS011;63319;46.046;17.802;2023-08-31T07:43:33;15.70;;;1.83;;
74791;SDS011;63319;46.046;17.802;2023-08-31T07:46:36;8.17;;;1.80;;
74791;SDS011;63319;46.046;17.802;2023-08-31T07:49:39;6.83;;;1.73;;
74791;SDS011;63319;46.046;17.802;2023-08-31T07:52:42;8.98;;;1.27;;
74791;SDS011;63319;46.046;17.802;2023-08-31T07:55:52;5.85;;;1.65;;
74791;SDS011;63319;46.046;17.802;2023-08-31T07:59:00;14.00;;;1.90;;
74791;SDS011;63319;46.046;17.802;2023-08-31T08:02:13;8.90;;;1.83;;
74791;SDS011;63319;46.046;17.802;2023-08-31T08:05:23;7.70;;;2.00;;
74791;SDS011;63319;46.046;17.802;2023-08-31T08:08:27;7.05;;;1.80;;
74791;SDS011;63319;46.046;17.802;2023-08-31T08:11:35;3.90;;;1.85;;
74791;SDS011;63319;46.046;17.802;2023-08-31T08:14:40;4.30;;;1.45;;
74791;SDS011;63319;46.046;17.802;2023-08-31T08:17:43;6.57;;;1.90;;
74791;SDS011;63319;46.046;17.802;2023-08-31T08:20:57;3.37;;;1.67;;
74791;SDS011;63319;46.046;17.802;2023-08-31T08:24:15;3.70;;;1.73;;
74791;SDS011;63319;46.046;17.802;2023-08-31T08:27:19;4.10;;;1.48;;
74791;SDS011;63319;46.046;17.802;2023-08-31T08:30:25;3.80;;;1.65;;
74791;SDS011;63319;46.046;17.802;2023-08-31T08:33:30;5.37;;;1.50;;
74791;SDS011;63319;46.046;17.802;2023-08-31T08:36:33;3.03;;;1.37;;
74791;SDS011;63319;46.046;17.802;2023-08-31T08:39:39;6.63;;;1.38;;
74791;SDS011;63319;46.046;17.802;2023-08-31T08:42:43;4.40;;;1.55;;
74791;SDS011;63319;46.046;17.802;2023-08-31T08:45:54;3.85;;;1.33;;
74791;SDS011;63319;46.046;17.802;2023-08-31T08:49:11;7.93;;;1.83;;
74791;SDS011;63319;46.046;17.802;2023-08-31T08:52:21;4.07;;;1.20;;
74791;SDS011;63319;46.046;17.802;2023-08-31T08:55:27;7.28;;;2.22;;
74791;SDS011;63319;46.046;17.802;2023-08-31T08:58:31;6.03;;;1.85;;
74791;SDS011;63319;46.046;17.802;2023-08-31T09:01:37;4.07;;;1.50;;
74791;SDS011;63319;46.046;17.802;2023-08-31T09:04:41;5.70;;;1.50;;
74791;SDS011;63319;46.046;17.802;2023-08-31T09:08:05;5.57;;;1.90;;
74791;SDS011;63319;46.046;17.802;2023-08-31T09:11:21;4.05;;;1.60;;
74791;SDS011;63319;46.046;17.802;2023-08-31T09:14:25;5.05;;;1.77;;
74791;SDS011;63319;46.046;17.802;2023-08-31T09:17:37;4.97;;;1.98;;
74791;SDS011;63319;46.046;17.802;2023-08-31T09:20:45;4.70;;;1.70;;
74791;SDS011;63319;46.046;17.802;2023-08-31T09:23:57;4.60;;;2.00;;
74791;SDS011;63319;46.046;17.802;2023-08-31T09:27:02;5.55;;;2.45;;
74791;SDS011;63319;46.046;17.802;2023-08-31T09:30:09;6.57;;;2.40;;
74791;SDS011;63319;46.046;17.802;2023-08-31T09:33:19;4.03;;;1.77;;
74791;SDS011;63319;46.046;17.802;2023-08-31T09:36:25;4.57;;;2.00;;
74791;SDS011;63319;46.046;17.802;2023-08-31T09:39:29;4.63;;;1.77;;
74791;SDS011;63319;46.046;17.802;2023-08-31T09:42:41;5.65;;;1.92;;
74791;SDS011;63319;46.046;17.802;2023-08-31T09:45:44;4.10;;;1.90;;
74791;SDS011;63319;46.046;17.802;2023-08-31T09:48:48;3.92;;;1.60;;
74791;SDS011;63319;46.046;17.802;2023-08-31T09:51:52;4.07;;;1.63;;
74791;SDS011;63319;46.046;17.802;2023-08-31T09:54:55;3.60;;;1.50;;
74791;SDS011;63319;46.046;17.802;2023-08-31T09:58:00;4.47;;;2.05;;
74791;SDS011;63319;46.046;17.802;2023-08-31T10:01:16;3.13;;;1.40;;
74791;SDS011;63319;46.046;17.802;2023-08-31T10:04:34;4.68;;;1.45;;
74791;SDS011;63319;46.046;17.802;2023-08-31T10:07:37;3.33;;;1.40;;
74791;SDS011;63319;46.046;17.802;2023-08-31T10:10:44;3.17;;;1.40;;
74791;SDS011;63319;46.046;17.802;2023-08-31T10:13:49;4.70;;;1.38;;
74791;SDS011;63319;46.046;17.802;2023-08-31T10:16:52;5.15;;;1.45;;
74791;SDS011;63319;46.046;17.802;2023-08-31T10:19:57;5.40;;;1.70;;
74791;SDS011;63319;46.046;17.802;2023-08-31T10:23:04;3.20;;;1.37;;
74791;SDS011;63319;46.046;17.802;2023-08-31T10:26:08;4.10;;;1.23;;
74791;SDS011;63319;46.046;17.802;2023-08-31T10:29:25;3.45;;;1.45;;
74791;SDS011;63319;46.046;17.802;2023-08-31T10:32:35;4.15;;;1.33;;
74791;SDS011;63319;46.046;17.802;2023-08-31T10:35:41;5.63;;;1.25;;
74791;SDS011;63319;46.046;17.802;2023-08-31T10:38:59;5.30;;;1.27;;
74791;SDS011;63319;46.046;17.802;2023-08-31T10:42:07;5.13;;;1.40;;
74791;SDS011;63319;46.046;17.802;2023-08-31T10:45:10;3.40;;;1.60;;
74791;SDS011;63319;46.046;17.802;2023-08-31T10:48:13;3.90;;;1.20;;
74791;SDS011;63319;46.046;17.802;2023-08-31T10:51:16;4.40;;;1.10;;
74791;SDS011;63319;46.046;17.802;2023-08-31T10:54:21;2.80;;;0.90;;
74791;SDS011;63319;46.046;17.802;2023-08-31T10:57:31;3.03;;;1.20;;
74791;SDS011;63319;46.046;17.802;2023-08-31T11:00:46;4.97;;;1.58;;
74791;SDS011;63319;46.046;17.802;2023-08-31T11:04:06;2.40;;;0.98;;
74791;SDS011;63319;46.046;17.802;2023-08-31T11:07:17;3.58;;;1.30;;
74791;SDS011;63319;46.046;17.802;2023-08-31T11:10:28;2.87;;;1.23;;
74791;SDS011;63319;46.046;17.802;2023-08-31T11:13:36;3.60;;;1.50;;
74791;SDS011;63319;46.046;17.802;2023-08-31T11:16:43;2.97;;;1.35;;
74791;SDS011;63319;46.046;17.802;2023-08-31T11:19:46;2.65;;;1.00;;
74791;SDS011;63319;46.046;17.802;2023-08-31T11:22:51;3.42;;;1.50;;
74791;SDS011;63319;46.046;17.802;2023-08-31T11:26:04;3.10;;;1.50;;
74791;SDS011;63319;46.046;17.802;2023-08-31T11:29:08;3.27;;;1.23;;
74791;SDS011;63319;46.046;17.802;2023-08-31T11:32:11;2.78;;;1.35;;
74791;SDS011;63319;46.046;17.802;2023-08-31T11:35:14;3.38;;;1.30;;
74791;SDS011;63319;46.046;17.802;2023-08-31T11:38:20;2.72;;;1.50;;
74791;SDS011;63319;46.046;17.802;2023-08-31T11:41:24;3.67;;;1.10;;
74791;SDS011;63319;46.046;17.802;2023-08-31T11:44:26;2.50;;;1.00;;
74791;SDS011;63319;46.046;17.802;2023-08-31T11:47:31;3.00;;;1.30;;
74791;SDS011;63319;46.046;17.802;2023-08-31T11:50:37;6.03;;;1.38;;
74791;SDS011;63319;46.046;17.802;2023-08-31T11:53:52;3.17;;;1.13;;
74791;SDS011;63319;46.046;17.802;2023-08-31T11:56:55;3.33;;;1.40;;
74791;SDS011;63319;46.046;17.802;2023-08-31T11:59:58;6.37;;;1.40;;
74791;SDS011;63319;46.046;17.802;2023-08-31T12:03:01;3.35;;;1.27;;
74791;SDS011;63319;46.046;17.802;2023-08-31T12:06:05;4.00;;;1.38;;
74791;SDS011;63319;46.046;17.802;2023-08-31T12:09:08;2.55;;;1.17;;
74791;SDS011;63319;46.046;17.802;2023-08-31T12:12:14;3.40;;;1.20;;
74791;SDS011;63319;46.046;17.802;2023-08-31T12:15:18;3.20;;;1.27;;
74791;SDS011;63319;46.046;17.802;2023-08-31T12:18:21;3.55;;;1.35;;
74791;SDS011;63319;46.046;17.802;2023-08-31T12:21:24;3.38;;;1.05;;
74791;SDS011;63319;46.046;17.802;2023-08-31T12:24:36;2.08;;;1.13;;
74791;SDS011;63319;46.046;17.802;2023-08-31T12:27:41;2.50;;;1.10;;
74791;SDS011;63319;46.046;17.802;2023-08-31T12:30:50;2.40;;;1.23;;
74791;SDS011;63319;46.046;17.802;2023-08-31T12:33:54;2.90;;;1.40;;
74791;SDS011;63319;46.046;17.802;2023-08-31T12:36:57;4.53;;;1.10;;
74791;SDS011;63319;46.046;17.802;2023-08-31T12:40:05;3.45;;;1.10;;
74791;SDS011;63319;46.046;17.802;2023-08-31T12:43:09;2.17;;;1.00;;
74791;SDS011;63319;46.046;17.802;2023-08-31T12:46:12;2.67;;;1.13;;
74791;SDS011;63319;46.046;17.802;2023-08-31T12:49:20;3.05;;;1.30;;
74791;SDS011;63319;46.046;17.802;2023-08-31T12:52:32;2.13;;;1.00;;
74791;SDS011;63319;46.046;17.802;2023-08-31T12:55:35;2.75;;;0.90;;
74791;SDS011;63319;46.046;17.802;2023-08-31T12:58:38;1.80;;;0.90;;
74791;SDS011;63319;46.046;17.802;2023-08-31T13:01:42;2.53;;;1.03;;
74791;SDS011;63319;46.046;17.802;2023-08-31T13:04:45;3.33;;;1.10;;
74791;SDS011;63319;46.046;17.802;2023-08-31T13:07:48;2.08;;;0.95;;
74791;SDS011;63319;46.046;17.802;2023-08-31T13:10:52;2.78;;;1.00;;
74791;SDS011;63319;46.046;17.802;2023-08-31T13:13:56;2.47;;;1.03;;
74791;SDS011;63319;46.046;17.802;2023-08-31T13:16:59;2.33;;;1.00;;
74791;SDS011;63319;46.046;17.802;2023-08-31T13:20:02;3.30;;;0.80;;
74791;SDS011;63319;46.046;17.802;2023-08-31T13:23:06;2.78;;;1.00;;
74791;SDS011;63319;46.046;17.802;2023-08-31T13:26:09;4.13;;;0.80;;
74791;SDS011;63319;46.046;17.802;2023-08-31T13:29:13;2.73;;;1.00;;
74791;SDS011;63319;46.046;17.802;2023-08-31T13:32:16;2.40;;;0.73;;
74791;SDS011;63319;46.046;17.802;2023-08-31T13:35:19;2.22;;;1.08;;
74791;SDS011;63319;46.046;17.802;2023-08-31T13:38:22;3.03;;;0.90;;
74791;SDS011;63319;46.046;17.802;2023-08-31T13:41:25;2.30;;;0.88;;
74791;SDS011;63319;46.046;17.802;2023-08-31T13:44:29;2.10;;;1.03;;
74791;SDS011;63319;46.046;17.802;2023-08-31T13:47:33;2.13;;;1.00;;
74791;SDS011;63319;46.046;17.802;2023-08-31T13:50:36;2.33;;;1.00;;
74791;SDS011;63319;46.046;17.802;2023-08-31T13:53:40;2.22;;;1.10;;
74791;SDS011;63319;46.046;17.802;2023-08-31T13:56:43;2.10;;;0.95;;
74791;SDS011;63319;46.046;17.802;2023-08-31T13:59:46;2.40;;;1.00;;
74791;SDS011;63319;46.046;17.802;2023-08-31T14:02:49;1.50;;;0.93;;
74791;SDS011;63319;46.046;17.802;2023-08-31T14:05:55;2.38;;;0.98;;
74791;SDS011;63319;46.046;17.802;2023-08-31T14:09:00;2.03;;;0.90;;
74791;SDS011;63319;46.046;17.802;2023-08-31T14:12:03;2.90;;;1.00;;
74791;SDS011;63319;46.046;17.802;2023-08-31T14:15:07;2.90;;;0.90;;
74791;SDS011;63319;46.046;17.802;2023-08-31T14:18:10;2.27;;;1.03;;
74791;SDS011;63319;46.046;17.802;2023-08-31T14:21:14;1.75;;;0.70;;
74791;SDS011;63319;46.046;17.802;2023-08-31T14:24:18;1.77;;;1.00;;
74791;SDS011;63319;46.046;17.802;2023-08-31T14:27:22;3.38;;;1.00;;
74791;SDS011;63319;46.046;17.802;2023-08-31T14:30:26;2.57;;;1.20;;
74791;SDS011;63319;46.046;17.802;2023-08-31T14:33:29;1.80;;;0.83;;
74791;SDS011;63319;46.046;17.802;2023-08-31T14:36:33;2.20;;;0.98;;
74791;SDS011;63319;46.046;17.802;2023-08-31T14:39:36;2.20;;;0.93;;
74791;SDS011;63319;46.046;17.802;2023-08-31T14:42:40;3.10;;;0.90;;
74791;SDS011;63319;46.046;17.802;2023-08-31T14:45:43;3.00;;;1.10;;
74791;SDS011;63319;46.046;17.802;2023-08-31T14:48:47;1.53;;;0.80;;
74791;SDS011;63319;46.046;17.802;2023-08-31T14:51:51;2.17;;;0.98;;
74791;SDS011;63319;46.046;17.802;2023-08-31T14:54:54;1.55;;;0.80;;
74791;SDS011;63319;46.046;17.802;2023-08-31T14:57:59;1.85;;;0.93;;
74791;SDS011;63319;46.046;17.802;2023-08-31T15:01:02;1.87;;;1.00;;
74791;SDS011;63319;46.046;17.802;2023-08-31T15:04:06;1.50;;;0.80;;
74791;SDS011;63319;46.046;17.802;2023-08-31T15:07:10;1.30;;;0.70;;
74791;SDS011;63319;46.046;17.802;2023-08-31T15:10:13;2.22;;;0.90;;
74791;SDS011;63319;46.046;17.802;2023-08-31T15:13:17;2.30;;;1.02;;
74791;SDS011;63319;46.046;17.802;2023-08-31T15:16:23;2.00;;;1.00;;
74791;SDS011;63319;46.046;17.802;2023-08-31T15:19:26;1.93;;;0.80;;
74791;SDS011;63319;46.046;17.802;2023-08-31T15:22:30;1.88;;;0.90;;
74791;SDS011;63319;46.046;17.802;2023-08-31T15:25:34;1.85;;;0.80;;
74791;SDS011;63319;46.046;17.802;2023-08-31T15:28:37;1.70;;;0.75;;
74791;SDS011;63319;46.046;17.802;2023-08-31T15:31:42;1.83;;;0.90;;
74791;SDS011;63319;46.046;17.802;2023-08-31T15:34:45;2.33;;;0.87;;
74791;SDS011;63319;46.046;17.802;2023-08-31T15:37:53;2.33;;;1.13;;
74791;SDS011;63319;46.046;17.802;2023-08-31T15:40:56;1.63;;;0.77;;
74791;SDS011;63319;46.046;17.802;2023-08-31T15:44:00;1.50;;;0.70;;
74791;SDS011;63319;46.046;17.802;2023-08-31T15:47:03;1.67;;;0.70;;
74791;SDS011;63319;46.046;17.802;2023-08-31T15:50:09;1.87;;;0.87;;
74791;SDS011;63319;46.046;17.802;2023-08-31T15:53:13;2.38;;;0.80;;
74791;SDS011;63319;46.046;17.802;2023-08-31T15:56:16;2.03;;;0.90;;
74791;SDS011;63319;46.046;17.802;2023-08-31T15:59:19;2.47;;;0.80;;
74791;SDS011;63319;46.046;17.802;2023-08-31T16:02:23;1.53;;;0.70;;
74791;SDS011;63319;46.046;17.802;2023-08-31T16:05:26;2.80;;;1.03;;
74791;SDS011;63319;46.046;17.802;2023-08-31T16:08:31;1.60;;;0.90;;
74791;SDS011;63319;46.046;17.802;2023-08-31T16:11:35;2.15;;;0.90;;
74791;SDS011;63319;46.046;17.802;2023-08-31T16:14:39;1.55;;;0.70;;
74791;SDS011;63319;46.046;17.802;2023-08-31T16:17:45;2.03;;;1.00;;
74791;SDS011;63319;46.046;17.802;2023-08-31T16:20:51;2.73;;;0.90;;
74791;SDS011;63319;46.046;17.802;2023-08-31T16:23:58;2.45;;;1.08;;
74791;SDS011;63319;46.046;17.802;2023-08-31T16:27:02;2.33;;;1.02;;
74791;SDS011;63319;46.046;17.802;2023-08-31T16:30:09;3.22;;;0.90;;
74791;SDS011;63319;46.046;17.802;2023-08-31T16:33:19;2.03;;;0.90;;
74791;SDS011;63319;46.046;17.802;2023-08-31T16:36:23;2.20;;;1.10;;
74791;SDS011;63319;46.046;17.802;2023-08-31T16:39:27;1.88;;;1.05;;
74791;SDS011;63319;46.046;17.802;2023-08-31T16:42:30;1.80;;;0.90;;
74791;SDS011;63319;46.046;17.802;2023-08-31T16:45:34;3.80;;;1.17;;
74791;SDS011;63319;46.046;17.802;2023-08-31T16:48:37;2.43;;;1.00;;
74791;SDS011;63319;46.046;17.802;2023-08-31T16:51:43;1.60;;;0.70;;
74791;SDS011;63319;46.046;17.802;2023-08-31T16:54:47;2.58;;;1.00;;
74791;SDS011;63319;46.046;17.802;2023-08-31T16:57:51;2.38;;;1.02;;
74791;SDS011;63319;46.046;17.802;2023-08-31T17:00:54;1.95;;;0.85;;
74791;SDS011;63319;46.046;17.802;2023-08-31T17:03:58;2.17;;;0.90;;
74791;SDS011;63319;46.046;17.802;2023-08-31T17:07:01;2.03;;;0.90;;
74791;SDS011;63319;46.046;17.802;2023-08-31T17:10:08;1.75;;;0.80;;
74791;SDS011;63319;46.046;17.802;2023-08-31T17:13:12;1.80;;;0.90;;
74791;SDS011;63319;46.046;17.802;2023-08-31T17:16:17;1.83;;;0.80;;
74791;SDS011;63319;46.046;17.802;2023-08-31T17:19:21;2.83;;;0.80;;
74791;SDS011;63319;46.046;17.802;2023-08-31T17:22:26;2.13;;;0.97;;
74791;SDS011;63319;46.046;17.802;2023-08-31T17:25:32;1.75;;;0.90;;
74791;SDS011;63319;46.046;17.802;2023-08-31T17:28:36;2.47;;;0.95;;
74791;SDS011;63319;46.046;17.802;2023-08-31T17:31:40;2.25;;;1.10;;
74791;SDS011;63319;46.046;17.802;2023-08-31T17:34:48;2.80;;;1.00;;
74791;SDS011;63319;46.046;17.802;2023-08-31T17:37:52;2.57;;;0.90;;
74791;SDS011;63319;46.046;17.802;2023-08-31T17:40:57;1.67;;;1.00;;
74791;SDS011;63319;46.046;17.802;2023-08-31T17:44:03;2.17;;;1.05;;
74791;SDS011;63319;46.046;17.802;2023-08-31T17:47:08;2.30;;;0.80;;
74791;SDS011;63319;46.046;17.802;2023-08-31T17:50:14;1.87;;;0.87;;
74791;SDS011;63319;46.046;17.802;2023-08-31T17:53:20;2.20;;;0.87;;
74791;SDS011;63319;46.046;17.802;2023-08-31T17:56:26;2.60;;;1.20;;
74791;SDS011;63319;46.046;17.802;2023-08-31T17:59:31;2.25;;;1.13;;
74791;SDS011;63319;46.046;17.802;2023-08-31T18:02:36;2.10;;;0.98;;
74791;SDS011;63319;46.046;17.802;2023-08-31T18:05:50;1.63;;;0.90;;
74791;SDS011;63319;46.046;17.802;2023-08-31T18:08:55;2.43;;;0.83;;
74791;SDS011;63319;46.046;17.802;2023-08-31T18:12:05;1.92;;;0.82;;
74791;SDS011;63319;46.046;17.802;2023-08-31T18:15:11;2.17;;;1.10;;
74791;SDS011;63319;46.046;17.802;2023-08-31T18:18:17;2.85;;;0.98;;
74791;SDS011;63319;46.046;17.802;2023-08-31T18:21:25;2.20;;;0.90;;
74791;SDS011;63319;46.046;17.802;2023-08-31T18:24:37;1.53;;;1.00;;
74791;SDS011;63319;46.046;17.802;2023-08-31T18:27:45;2.53;;;1.08;;
74791;SDS011;63319;46.046;17.802;2023-08-31T18:30:54;1.92;;;0.80;;